Time,TemperatureF,DewpointF,PressureIn,WindDirection,WindDirectionDegrees,WindSpeedMPH,WindSpeedGustMPH,Humidity,HourlyPrecipIn,Conditions,Clouds,dailyrainin,SoftwareType,DateUTC
2013-10-24 00:01:00,39.8,32.8,30.08,ENE,68,0.0,0.0,76,0.00,,,0.00,WUHU216HW,2013-10-24 04:01:00,
2013-10-24 00:06:00,39.6,32.9,30.09,ENE,68,0.0,0.0,77,0.00,,,0.00,WUHU216HW,2013-10-24 04:06:00,
2013-10-24 00:11:00,39.2,32.7,30.09,ENE,68,0.0,0.0,77,0.00,,,0.00,WUHU216HW,2013-10-24 04:11:00,
2013-10-24 00:16:00,39.1,32.5,30.08,ENE,68,0.0,0.0,77,0.00,,,0.00,WUHU216HW,2013-10-24 04:16:00,
2013-10-24 00:21:00,39.1,32.5,30.08,East,90,0.7,0.7,77,0.00,,,0.00,WUHU216HW,2013-10-24 04:21:00,
2013-10-24 00:26:00,39.1,32.5,30.08,East,90,0.4,0.7,77,0.00,,,0.00,WUHU216HW,2013-10-24 04:26:00,
2013-10-24 00:31:00,38.9,32.3,30.08,East,90,0.0,0.7,77,0.00,,,0.00,WUHU216HW,2013-10-24 04:31:00,
2013-10-24 00:36:00,38.9,32.3,30.09,East,90,0.0,0.4,77,0.00,,,0.00,WUHU216HW,2013-10-24 04:36:00,
2013-10-24 00:41:00,38.9,32.6,30.09,East,90,0.0,0.0,78,0.00,,,0.00,WUHU216HW,2013-10-24 04:41:00,
2013-10-24 00:46:00,38.7,32.5,30.09,East,90,0.0,0.0,78,0.00,,,0.00,WUHU216HW,2013-10-24 04:46:00,
2013-10-24 00:51:00,38.5,32.3,30.09,East,90,0.0,0.0,78,0.00,,,0.00,WUHU216HW,2013-10-24 04:51:00,
2013-10-24 00:56:00,38.5,32.3,30.09,East,90,0.0,0.0,78,0.00,,,0.00,WUHU216HW,2013-10-24 04:56:00,
2013-10-24 01:01:00,38.3,31.8,30.09,East,90,0.0,0.0,77,0.00,,,0.00,WUHU216HW,2013-10-24 05:01:00,
2013-10-24 01:06:00,38.3,31.8,30.09,East,90,0.0,0.0,77,0.00,,,0.00,WUHU216HW,2013-10-24 05:06:00,
2013-10-24 01:11:00,38.3,32.1,30.09,East,90,0.0,0.0,78,0.00,,,0.00,WUHU216HW,2013-10-24 05:11:00,
2013-10-24 01:16:00,38.3,32.1,30.09,East,90,0.0,0.0,78,0.00,,,0.00,WUHU216HW,2013-10-24 05:16:00,
2013-10-24 01:21:00,38.5,32.6,30.09,East,90,0.0,0.0,79,0.00,,,0.00,WUHU216HW,2013-10-24 05:21:00,
2013-10-24 01:26:00,38.5,32.6,30.08,East,90,0.7,0.7,79,0.00,,,0.00,WUHU216HW,2013-10-24 05:26:00,
2013-10-24 01:31:00,38.5,32.6,30.08,East,90,0.0,0.7,79,0.00,,,0.00,WUHU216HW,2013-10-24 05:31:00,
2013-10-24 01:36:00,38.3,32.1,30.09,East,90,0.0,0.7,78,0.00,,,0.00,WUHU216HW,2013-10-24 05:36:00,
2013-10-24 01:41:00,38.3,32.1,30.09,East,90,0.0,0.0,78,0.00,,,0.00,WUHU216HW,2013-10-24 05:41:00,
2013-10-24 01:46:00,38.2,32.2,30.09,East,90,0.0,0.0,79,0.00,,,0.00,WUHU216HW,2013-10-24 05:46:00,
2013-10-24 01:51:00,38.2,32.2,30.09,East,90,0.0,0.0,79,0.00,,,0.00,WUHU216HW,2013-10-24 05:51:00,
2013-10-24 01:56:00,38.2,32.2,30.09,East,90,0.0,0.0,79,0.00,,,0.00,WUHU216HW,2013-10-24 05:56:00,
2013-10-24 02:01:00,38.2,32.2,30.09,East,90,0.0,0.0,79,0.00,,,0.00,WUHU216HW,2013-10-24 06:01:00,
2013-10-24 02:06:00,38.0,32.0,30.10,East,90,0.0,0.0,79,0.00,,,0.00,WUHU216HW,2013-10-24 06:06:00,
2013-10-24 02:11:00,37.8,31.9,30.09,East,90,0.0,0.0,79,0.00,,,0.00,WUHU216HW,2013-10-24 06:11:00,
2013-10-24 02:16:00,37.8,31.9,30.10,East,90,0.0,0.0,79,0.00,,,0.00,WUHU216HW,2013-10-24 06:16:00,
2013-10-24 02:21:00,37.8,31.9,30.09,East,90,0.0,0.0,79,0.00,,,0.00,WUHU216HW,2013-10-24 06:21:00,
2013-10-24 02:26:00,37.8,31.9,30.10,East,90,0.0,0.0,79,0.00,,,0.00,WUHU216HW,2013-10-24 06:26:00,
2013-10-24 02:31:00,37.8,31.9,30.10,East,90,0.0,0.0,79,0.00,,,0.00,WUHU216HW,2013-10-24 06:31:00,
2013-10-24 02:36:00,37.8,31.9,30.10,East,90,0.0,0.0,79,0.00,,,0.00,WUHU216HW,2013-10-24 06:36:00,
2013-10-24 02:41:00,37.8,31.9,30.10,East,90,0.0,0.0,79,0.00,,,0.00,WUHU216HW,2013-10-24 06:41:00,
2013-10-24 02:46:00,38.0,32.0,30.10,East,90,0.0,0.0,79,0.00,,,0.00,WUHU216HW,2013-10-24 06:46:00,
2013-10-24 02:51:00,38.0,32.4,30.10,East,90,0.0,0.0,80,0.00,,,0.00,WUHU216HW,2013-10-24 06:51:00,
2013-10-24 02:56:00,38.0,32.4,30.11,East,90,0.0,0.0,80,0.00,,,0.00,WUHU216HW,2013-10-24 06:56:00,
2013-10-24 03:01:00,38.0,32.4,30.11,East,90,0.0,0.0,80,0.00,,,0.00,WUHU216HW,2013-10-24 07:01:00,
2013-10-24 03:06:00,38.0,32.4,30.11,East,90,0.0,0.0,80,0.00,,,0.00,WUHU216HW,2013-10-24 07:06:00,
2013-10-24 03:11:00,38.0,32.4,30.11,East,90,0.0,0.0,80,0.00,,,0.00,WUHU216HW,2013-10-24 07:11:00,
2013-10-24 03:16:00,37.8,32.2,30.11,East,90,0.0,0.0,80,0.00,,,0.00,WUHU216HW,2013-10-24 07:16:00,
2013-10-24 03:21:00,37.8,32.2,30.10,East,90,0.0,0.0,80,0.00,,,0.00,WUHU216HW,2013-10-24 07:21:00,
2013-10-24 03:26:00,37.8,32.2,30.10,East,90,0.0,0.0,80,0.00,,,0.00,WUHU216HW,2013-10-24 07:26:00,
2013-10-24 03:31:00,37.8,32.2,30.10,East,90,0.0,0.0,80,0.00,,,0.00,WUHU216HW,2013-10-24 07:31:00,
2013-10-24 03:36:00,37.8,32.2,30.10,East,90,0.0,0.0,80,0.00,,,0.00,WUHU216HW,2013-10-24 07:36:00,
2013-10-24 03:41:00,37.8,32.2,30.10,East,90,0.0,0.0,80,0.00,,,0.00,WUHU216HW,2013-10-24 07:41:00,
2013-10-24 03:46:00,37.6,32.3,30.10,East,90,0.0,0.0,81,0.00,,,0.00,WUHU216HW,2013-10-24 07:46:00,
2013-10-24 03:51:00,37.6,32.3,30.10,East,90,0.0,0.0,81,0.00,,,0.00,WUHU216HW,2013-10-24 07:51:00,
2013-10-24 03:56:00,37.4,32.1,30.10,East,90,0.0,0.0,81,0.00,,,0.00,WUHU216HW,2013-10-24 07:56:00,
2013-10-24 04:01:00,37.4,32.1,30.10,East,90,0.0,0.0,81,0.00,,,0.00,WUHU216HW,2013-10-24 08:01:00,
2013-10-24 04:06:00,37.6,32.6,30.10,East,90,0.0,0.0,82,0.00,,,0.00,WUHU216HW,2013-10-24 08:06:00,
2013-10-24 04:11:00,37.6,32.6,30.10,East,90,0.0,0.0,82,0.00,,,0.00,WUHU216HW,2013-10-24 08:11:00,
2013-10-24 04:16:00,37.6,32.6,30.10,East,90,0.0,0.0,82,0.00,,,0.00,WUHU216HW,2013-10-24 08:16:00,
2013-10-24 04:21:00,37.8,32.8,30.09,East,90,0.0,0.0,82,0.00,,,0.00,WUHU216HW,2013-10-24 08:21:00,
2013-10-24 04:26:00,37.8,32.8,30.10,East,90,0.0,0.0,82,0.00,,,0.00,WUHU216HW,2013-10-24 08:26:00,
2013-10-24 04:31:00,38.0,32.9,30.10,North,0,0.0,0.0,82,0.00,,,0.00,WUHU216HW,2013-10-24 08:31:00,
2013-10-24 04:36:00,38.0,32.9,30.10,North,0,0.0,0.0,82,0.00,,,0.00,WUHU216HW,2013-10-24 08:36:00,
2013-10-24 04:41:00,38.0,32.9,30.10,North,0,0.0,0.0,82,0.00,,,0.00,WUHU216HW,2013-10-24 08:41:00,
2013-10-24 04:46:00,38.0,32.9,30.10,North,0,0.0,0.0,82,0.00,,,0.00,WUHU216HW,2013-10-24 08:46:00,
2013-10-24 04:51:00,38.2,33.1,30.10,North,0,0.0,0.0,82,0.00,,,0.00,WUHU216HW,2013-10-24 08:51:00,
2013-10-24 04:56:00,38.2,33.1,30.10,North,0,0.0,0.0,82,0.00,,,0.00,WUHU216HW,2013-10-24 08:56:00,
2013-10-24 05:01:00,38.2,33.1,30.10,North,0,0.0,0.0,82,0.00,,,0.00,WUHU216HW,2013-10-24 09:01:00,
2013-10-24 05:06:00,38.2,33.1,30.10,North,0,0.0,0.0,82,0.00,,,0.00,WUHU216HW,2013-10-24 09:06:00,
2013-10-24 05:11:00,38.3,33.3,30.11,North,0,0.0,0.0,82,0.00,,,0.00,WUHU216HW,2013-10-24 09:11:00,
2013-10-24 05:16:00,38.5,33.5,30.11,North,0,0.0,0.0,82,0.00,,,0.00,WUHU216HW,2013-10-24 09:16:00,
2013-10-24 05:21:00,38.5,33.5,30.11,North,0,0.0,0.0,82,0.00,,,0.00,WUHU216HW,2013-10-24 09:21:00,
2013-10-24 05:26:00,38.5,33.5,30.11,North,0,0.0,0.0,82,0.00,,,0.00,WUHU216HW,2013-10-24 09:26:00,
2013-10-24 05:31:00,38.5,33.5,30.11,North,0,0.0,0.0,82,0.00,,,0.00,WUHU216HW,2013-10-24 09:31:00,
2013-10-24 05:36:00,38.5,33.5,30.11,North,0,0.0,0.0,82,0.00,,,0.00,WUHU216HW,2013-10-24 09:36:00,
2013-10-24 05:41:00,38.5,33.5,30.11,North,0,0.0,0.0,82,0.00,,,0.00,WUHU216HW,2013-10-24 09:41:00,
2013-10-24 05:46:00,38.5,33.5,30.11,NNE,23,0.0,0.0,82,0.00,,,0.00,WUHU216HW,2013-10-24 09:46:00,
2013-10-24 05:51:00,38.5,33.5,30.11,NNE,23,0.0,0.0,82,0.00,,,0.00,WUHU216HW,2013-10-24 09:51:00,
2013-10-24 05:56:00,38.5,33.5,30.11,NE,45,0.0,0.0,82,0.00,,,0.00,WUHU216HW,2013-10-24 09:56:00,
2013-10-24 06:01:00,38.7,33.7,30.11,NE,45,0.0,0.0,82,0.00,,,0.00,WUHU216HW,2013-10-24 10:01:00,
2013-10-24 06:06:00,38.7,33.7,30.12,NE,45,0.0,0.0,82,0.00,,,0.00,WUHU216HW,2013-10-24 10:06:00,
2013-10-24 06:11:00,38.7,33.7,30.12,NE,45,0.0,0.0,82,0.00,,,0.00,WUHU216HW,2013-10-24 10:11:00,
2013-10-24 06:16:00,38.7,34.0,30.12,NE,45,0.0,0.0,83,0.00,,,0.00,WUHU216HW,2013-10-24 10:16:00,
2013-10-24 06:21:00,38.5,33.9,30.12,NE,45,0.0,0.0,83,0.00,,,0.00,WUHU216HW,2013-10-24 10:21:00,
2013-10-24 06:26:00,38.5,33.9,30.12,NE,45,0.0,0.0,83,0.00,,,0.00,WUHU216HW,2013-10-24 10:26:00,
2013-10-24 06:31:00,38.5,33.9,30.12,NE,45,0.0,0.0,83,0.00,,,0.00,WUHU216HW,2013-10-24 10:31:00,
2013-10-24 06:36:00,38.5,34.1,30.12,NE,45,0.0,0.0,84,0.00,,,0.00,WUHU216HW,2013-10-24 10:36:00,
2013-10-24 06:41:00,38.5,34.1,30.12,NE,45,0.0,0.0,84,0.00,,,0.00,WUHU216HW,2013-10-24 10:41:00,
2013-10-24 06:46:00,38.5,34.1,30.12,NE,45,0.0,0.0,84,0.00,,,0.00,WUHU216HW,2013-10-24 10:46:00,
2013-10-24 06:51:00,38.5,34.1,30.12,SE,135,0.2,1.1,84,0.00,,,0.00,WUHU216HW,2013-10-24 10:51:00,
2013-10-24 06:56:00,38.7,34.3,30.12,SE,135,0.0,1.1,84,0.00,,,0.00,WUHU216HW,2013-10-24 10:56:00,
2013-10-24 07:01:00,38.9,34.5,30.12,SE,135,0.0,0.2,84,0.00,,,0.00,WUHU216HW,2013-10-24 11:01:00,
2013-10-24 07:06:00,38.9,34.2,30.13,SE,135,0.0,0.0,83,0.00,,,0.00,WUHU216HW,2013-10-24 11:06:00,
2013-10-24 07:11:00,38.9,34.2,30.12,SE,135,0.0,0.0,83,0.00,,,0.00,WUHU216HW,2013-10-24 11:11:00,
2013-10-24 07:16:00,38.9,34.2,30.13,SE,135,0.0,0.0,83,0.00,,,0.00,WUHU216HW,2013-10-24 11:16:00,
2013-10-24 07:21:00,38.9,34.2,30.12,SE,135,0.0,0.0,83,0.00,,,0.00,WUHU216HW,2013-10-24 11:21:00,
2013-10-24 07:26:00,38.9,34.2,30.12,SE,135,0.0,0.0,83,0.00,,,0.00,WUHU216HW,2013-10-24 11:26:00,
2013-10-24 07:31:00,38.9,34.2,30.12,SE,135,0.0,0.0,83,0.00,,,0.00,WUHU216HW,2013-10-24 11:31:00,
2013-10-24 07:36:00,38.9,34.2,30.12,ESE,113,0.0,0.4,83,0.00,,,0.00,WUHU216HW,2013-10-24 11:36:00,
2013-10-24 07:41:00,38.9,34.2,30.12,ESE,113,0.0,0.4,83,0.00,,,0.00,WUHU216HW,2013-10-24 11:41:00,
2013-10-24 07:46:00,38.9,33.8,30.12,ESE,113,0.0,0.0,82,0.00,,,0.00,WUHU216HW,2013-10-24 11:46:00,
2013-10-24 07:51:00,38.9,33.8,30.12,ESE,113,0.0,0.0,82,0.00,,,0.00,WUHU216HW,2013-10-24 11:51:00,
2013-10-24 07:56:00,38.9,33.8,30.12,SE,135,0.0,0.0,82,0.00,,,0.00,WUHU216HW,2013-10-24 11:56:00,
2013-10-24 08:01:00,38.9,33.8,30.13,SE,135,0.0,0.0,82,0.00,,,0.00,WUHU216HW,2013-10-24 12:01:00,
2013-10-24 08:06:00,38.7,33.7,30.13,SE,135,0.0,0.0,82,0.00,,,0.00,WUHU216HW,2013-10-24 12:06:00,
2013-10-24 08:11:00,38.7,34.0,30.13,SE,135,0.0,0.0,83,0.00,,,0.00,WUHU216HW,2013-10-24 12:11:00,
2013-10-24 08:16:00,38.9,34.2,30.13,SE,135,0.0,0.0,83,0.00,,,0.00,WUHU216HW,2013-10-24 12:16:00,
2013-10-24 08:21:00,38.9,34.2,30.13,SE,135,0.0,0.0,83,0.00,,,0.00,WUHU216HW,2013-10-24 12:21:00,
2013-10-24 08:26:00,38.9,34.2,30.13,SSW,203,0.0,0.0,83,0.00,,,0.00,WUHU216HW,2013-10-24 12:26:00,
2013-10-24 08:31:00,39.1,34.4,30.13,SSW,203,0.0,0.0,83,0.00,,,0.00,WUHU216HW,2013-10-24 12:31:00,
2013-10-24 08:36:00,39.2,34.6,30.13,SSW,203,0.0,0.0,83,0.00,,,0.00,WUHU216HW,2013-10-24 12:36:00,
2013-10-24 08:41:00,39.2,34.6,30.14,SSW,203,0.0,0.2,83,0.00,,,0.00,WUHU216HW,2013-10-24 12:41:00,
2013-10-24 08:46:00,39.2,34.6,30.14,SSW,203,0.0,0.2,83,0.00,,,0.00,WUHU216HW,2013-10-24 12:46:00,
2013-10-24 08:51:00,39.4,34.7,30.14,SSE,158,0.0,0.0,83,0.00,,,0.00,WUHU216HW,2013-10-24 12:51:00,
2013-10-24 08:56:00,39.6,34.8,30.14,SSE,158,0.0,0.0,83,0.00,,,0.00,WUHU216HW,2013-10-24 12:56:00,
2013-10-24 09:02:00,39.8,35.0,30.14,SSE,158,0.0,0.0,83,0.00,,,0.00,WUHU216HW,2013-10-24 13:02:00,
2013-10-24 09:07:00,40.0,35.5,30.14,SSE,158,0.0,0.0,84,0.00,,,0.00,WUHU216HW,2013-10-24 13:07:00,
2013-10-24 09:12:00,40.1,35.6,30.14,SSE,158,0.0,0.0,84,0.00,,,0.00,WUHU216HW,2013-10-24 13:12:00,
2013-10-24 09:17:00,40.3,35.8,30.15,SSE,158,0.0,0.0,84,0.00,,,0.00,WUHU216HW,2013-10-24 13:17:00,
2013-10-24 09:22:00,40.5,36.0,30.15,SW,225,0.0,0.4,84,0.00,,,0.00,WUHU216HW,2013-10-24 13:22:00,
2013-10-24 09:27:00,40.5,36.0,30.15,SW,225,0.0,0.4,84,0.00,,,0.00,WUHU216HW,2013-10-24 13:27:00,
2013-10-24 09:32:00,40.7,36.2,30.15,SW,225,0.0,0.4,84,0.00,,,0.00,WUHU216HW,2013-10-24 13:32:00,
2013-10-24 09:37:00,40.7,36.2,30.15,SW,225,0.0,0.0,84,0.00,,,0.00,WUHU216HW,2013-10-24 13:37:00,
2013-10-24 09:42:00,41.0,36.6,30.15,SW,225,0.2,0.4,84,0.00,,,0.00,WUHU216HW,2013-10-24 13:42:00,
2013-10-24 09:47:00,41.0,36.6,30.16,WSW,248,0.4,0.4,84,0.00,,,0.00,WUHU216HW,2013-10-24 13:47:00,
2013-10-24 09:52:00,41.2,36.7,30.15,WSW,248,0.0,0.4,84,0.00,,,0.00,WUHU216HW,2013-10-24 13:52:00,
2013-10-24 09:57:00,41.4,36.9,30.15,WSW,248,0.0,0.4,84,0.00,,,0.00,WUHU216HW,2013-10-24 13:57:00,
2013-10-24 10:02:00,41.6,37.1,30.15,WSW,248,0.0,0.4,84,0.00,,,0.00,WUHU216HW,2013-10-24 14:02:00,
2013-10-24 10:07:00,41.9,37.7,30.15,WSW,248,1.1,1.1,85,0.00,,,0.00,WUHU216HW,2013-10-24 14:07:00,
2013-10-24 10:12:00,42.1,37.9,30.15,WSW,248,0.4,1.1,85,0.00,,,0.00,WUHU216HW,2013-10-24 14:12:00,
2013-10-24 10:17:00,42.3,38.1,30.16,WSW,248,0.4,1.1,85,0.00,,,0.00,WUHU216HW,2013-10-24 14:17:00,
2013-10-24 10:22:00,42.5,38.3,30.16,WSW,248,0.7,1.1,85,0.00,,,0.00,WUHU216HW,2013-10-24 14:22:00,
2013-10-24 10:27:00,42.7,38.2,30.16,WSW,248,0.7,1.1,84,0.00,,,0.00,WUHU216HW,2013-10-24 14:27:00,
2013-10-24 10:32:00,42.8,38.4,30.16,West,270,1.1,1.1,84,0.00,,,0.00,WUHU216HW,2013-10-24 14:32:00,
2013-10-24 10:37:00,43.0,38.2,30.16,WSW,248,1.1,1.1,83,0.00,,,0.00,WUHU216HW,2013-10-24 14:37:00,
2013-10-24 10:42:00,43.2,38.3,30.16,WNW,293,0.7,1.3,83,0.00,,,0.00,WUHU216HW,2013-10-24 14:42:00,
2013-10-24 10:47:00,43.6,38.7,30.16,WNW,293,0.4,1.6,83,0.00,,,0.00,WUHU216HW,2013-10-24 14:47:00,
2013-10-24 10:52:00,43.7,38.6,30.16,West,270,1.3,1.6,82,0.00,,,0.00,WUHU216HW,2013-10-24 14:52:00,
2013-10-24 10:57:00,44.3,39.2,30.16,WSW,248,1.1,1.6,82,0.00,,,0.00,WUHU216HW,2013-10-24 14:57:00,
2013-10-24 11:02:00,44.6,39.2,30.16,SW,225,1.1,1.8,81,0.00,,,0.00,WUHU216HW,2013-10-24 15:02:00,
2013-10-24 11:07:00,45.0,38.3,30.16,WSW,248,1.8,2.5,77,0.00,,,0.00,WUHU216HW,2013-10-24 15:07:00,
2013-10-24 11:12:00,45.4,38.9,30.16,SW,225,1.8,2.5,78,0.00,,,0.00,WUHU216HW,2013-10-24 15:12:00,
2013-10-24 11:17:00,45.7,39.2,30.16,WSW,248,1.6,3.1,78,0.00,,,0.00,WUHU216HW,2013-10-24 15:17:00,
2013-10-24 11:22:00,45.7,39.0,30.16,SW,225,0.9,3.1,77,0.00,,,0.00,WUHU216HW,2013-10-24 15:22:00,
2013-10-24 11:27:00,45.9,39.4,30.15,WSW,248,0.7,2.5,78,0.00,,,0.00,WUHU216HW,2013-10-24 15:27:00,
2013-10-24 11:32:00,46.1,39.3,30.15,SW,225,0.4,1.8,77,0.00,,,0.00,WUHU216HW,2013-10-24 15:32:00,
2013-10-24 11:37:00,46.4,39.3,30.15,WSW,248,1.1,1.8,76,0.00,,,0.00,WUHU216HW,2013-10-24 15:37:00,
2013-10-24 11:42:00,46.4,39.0,30.15,SSW,203,1.8,2.2,75,0.00,,,0.00,WUHU216HW,2013-10-24 15:42:00,
2013-10-24 11:47:00,47.0,38.8,30.15,WSW,248,1.3,2.2,73,0.00,,,0.00,WUHU216HW,2013-10-24 15:47:00,
2013-10-24 11:52:00,47.2,39.0,30.15,SW,225,1.1,2.7,73,0.00,,,0.00,WUHU216HW,2013-10-24 15:52:00,
2013-10-24 11:57:00,47.5,39.2,30.15,SSW,203,1.6,2.7,73,0.00,,,0.00,WUHU216HW,2013-10-24 15:57:00,
2013-10-24 12:02:00,47.7,38.4,30.15,WSW,248,1.8,2.5,70,0.00,,,0.00,WUHU216HW,2013-10-24 16:02:00,
2013-10-24 12:07:00,48.1,38.4,30.15,WSW,248,1.1,2.7,69,0.00,,,0.00,WUHU216HW,2013-10-24 16:07:00,
2013-10-24 12:12:00,48.2,38.5,30.15,WNW,293,1.8,2.7,69,0.00,,,0.00,WUHU216HW,2013-10-24 16:12:00,
2013-10-24 12:17:00,48.6,39.2,30.15,WSW,248,1.8,2.5,70,0.00,,,0.00,WUHU216HW,2013-10-24 16:17:00,
2013-10-24 12:22:00,48.6,39.2,30.15,SW,225,2.2,2.7,70,0.00,,,0.00,WUHU216HW,2013-10-24 16:22:00,
2013-10-24 12:27:00,48.4,39.1,30.15,WSW,248,0.0,3.1,70,0.00,,,0.00,WUHU216HW,2013-10-24 16:27:00,
2013-10-24 12:32:00,48.2,38.9,30.15,West,270,0.7,3.1,70,0.00,,,0.00,WUHU216HW,2013-10-24 16:32:00,
2013-10-24 12:37:00,48.2,39.3,30.14,West,270,1.1,2.2,71,0.00,,,0.00,WUHU216HW,2013-10-24 16:37:00,
2013-10-24 12:42:00,48.2,38.9,30.14,WSW,248,1.1,2.5,70,0.00,,,0.00,WUHU216HW,2013-10-24 16:42:00,
2013-10-24 12:47:00,48.2,38.5,30.15,WSW,248,1.3,2.5,69,0.00,,,0.00,WUHU216HW,2013-10-24 16:47:00,
2013-10-24 12:52:00,48.4,39.1,30.15,WSW,248,1.3,2.5,70,0.00,,,0.00,WUHU216HW,2013-10-24 16:52:00,
2013-10-24 12:57:00,48.6,38.9,30.15,WSW,248,2.0,2.5,69,0.00,,,0.00,WUHU216HW,2013-10-24 16:57:00,
2013-10-24 13:02:00,48.8,38.6,30.15,WSW,248,2.0,2.0,68,0.00,,,0.00,WUHU216HW,2013-10-24 17:02:00,
2013-10-24 13:07:00,49.0,38.8,30.15,SW,225,0.4,2.9,68,0.00,,,0.00,WUHU216HW,2013-10-24 17:07:00,
2013-10-24 13:12:00,49.0,38.8,30.15,West,270,1.6,2.9,68,0.00,,,0.00,WUHU216HW,2013-10-24 17:12:00,
2013-10-24 13:17:00,48.8,38.6,30.15,WSW,248,1.6,2.5,68,0.00,,,0.00,WUHU216HW,2013-10-24 17:17:00,
2013-10-24 13:22:00,48.6,38.5,30.14,WSW,248,1.1,2.5,68,0.00,,,0.00,WUHU216HW,2013-10-24 17:22:00,
2013-10-24 13:27:00,48.6,38.9,30.14,SW,225,0.0,2.5,69,0.00,,,0.00,WUHU216HW,2013-10-24 17:27:00,
2013-10-24 13:32:00,48.6,38.5,30.14,WSW,248,1.1,1.3,68,0.00,,,0.00,WUHU216HW,2013-10-24 17:32:00,
2013-10-24 13:37:00,48.6,38.5,30.14,WSW,248,1.3,1.6,68,0.00,,,0.00,WUHU216HW,2013-10-24 17:37:00,
2013-10-24 13:42:00,48.6,38.9,30.13,WSW,248,0.7,1.8,69,0.00,,,0.00,WUHU216HW,2013-10-24 17:42:00,
2013-10-24 13:47:00,48.6,38.5,30.13,WSW,248,1.6,2.2,68,0.00,,,0.00,WUHU216HW,2013-10-24 17:47:00,
2013-10-24 13:52:00,48.8,38.6,30.13,West,270,1.1,2.2,68,0.00,,,0.00,WUHU216HW,2013-10-24 17:52:00,
2013-10-24 13:57:00,49.0,38.8,30.13,WSW,248,1.6,1.8,68,0.00,,,0.00,WUHU216HW,2013-10-24 17:57:00,
2013-10-24 14:02:00,49.0,38.8,30.13,SW,225,0.4,1.8,68,0.00,,,0.00,WUHU216HW,2013-10-24 18:02:00,
2013-10-24 14:07:00,49.1,39.0,30.13,WSW,248,1.1,1.3,68,0.00,,,0.00,WUHU216HW,2013-10-24 18:07:00,
2013-10-24 14:12:00,49.1,39.0,30.13,WSW,248,0.9,1.8,68,0.00,,,0.00,WUHU216HW,2013-10-24 18:12:00,
2013-10-24 14:17:00,49.3,39.2,30.13,WSW,248,0.7,2.5,68,0.00,,,0.00,WUHU216HW,2013-10-24 18:17:00,
2013-10-24 14:22:00,49.3,38.8,30.13,WSW,248,1.3,2.5,67,0.00,,,0.00,WUHU216HW,2013-10-24 18:22:00,
2013-10-24 14:27:00,49.3,38.8,30.13,WSW,248,1.1,2.2,67,0.00,,,0.00,WUHU216HW,2013-10-24 18:27:00,
2013-10-24 14:32:00,49.3,39.2,30.13,SW,225,1.3,1.8,68,0.00,,,0.00,WUHU216HW,2013-10-24 18:32:00,
2013-10-24 14:37:00,49.3,38.4,30.13,West,270,1.1,1.8,66,0.00,,,0.00,WUHU216HW,2013-10-24 18:37:00,
2013-10-24 14:42:00,49.3,38.8,30.12,WSW,248,0.7,2.7,67,0.00,,,0.00,WUHU216HW,2013-10-24 18:42:00,
2013-10-24 14:47:00,49.5,39.0,30.12,SW,225,1.1,2.7,67,0.00,,,0.00,WUHU216HW,2013-10-24 18:47:00,
2013-10-24 14:52:00,49.7,39.2,30.12,SW,225,1.1,2.0,67,0.00,,,0.00,WUHU216HW,2013-10-24 18:52:00,
2013-10-24 14:57:00,49.7,39.2,30.12,SSW,203,1.1,2.0,67,0.00,,,0.00,WUHU216HW,2013-10-24 18:57:00,
2013-10-24 15:02:00,49.7,38.8,30.12,WSW,248,1.6,2.0,66,0.00,,,0.00,WUHU216HW,2013-10-24 19:02:00,
2013-10-24 15:07:00,49.7,38.8,30.12,WSW,248,2.2,2.2,66,0.00,,,0.00,WUHU216HW,2013-10-24 19:07:00,
2013-10-24 15:12:00,49.7,39.2,30.12,SW,225,1.6,2.9,67,0.00,,,0.00,WUHU216HW,2013-10-24 19:12:00,
2013-10-24 15:17:00,49.5,38.6,30.12,WSW,248,1.1,2.9,66,0.00,,,0.00,WUHU216HW,2013-10-24 19:17:00,
2013-10-24 15:22:00,49.5,39.0,30.12,WSW,248,1.3,2.0,67,0.00,,,0.00,WUHU216HW,2013-10-24 19:22:00,
2013-10-24 15:27:00,49.3,38.4,30.12,WSW,248,1.6,1.8,66,0.00,,,0.00,WUHU216HW,2013-10-24 19:27:00,
2013-10-24 15:32:00,49.3,38.8,30.12,West,270,1.1,1.8,67,0.00,,,0.00,WUHU216HW,2013-10-24 19:32:00,
2013-10-24 15:37:00,49.1,38.6,30.12,WSW,248,1.1,1.6,67,0.00,,,0.00,WUHU216HW,2013-10-24 19:37:00,
2013-10-24 15:42:00,49.1,38.6,30.12,WSW,248,1.6,1.6,67,0.00,,,0.00,WUHU216HW,2013-10-24 19:42:00,
2013-10-24 15:47:00,49.1,39.0,30.12,WSW,248,0.4,1.6,68,0.00,,,0.00,WUHU216HW,2013-10-24 19:47:00,
2013-10-24 15:52:00,49.0,38.8,30.12,WSW,248,1.3,1.8,68,0.00,,,0.00,WUHU216HW,2013-10-24 19:52:00,
2013-10-24 15:57:00,49.1,39.0,30.12,SW,225,1.1,2.5,68,0.00,,,0.00,WUHU216HW,2013-10-24 19:57:00,
2013-10-24 16:02:00,49.1,39.0,30.12,WNW,293,1.6,3.1,68,0.00,,,0.00,WUHU216HW,2013-10-24 20:02:00,
2013-10-24 16:07:00,49.3,38.8,30.12,WSW,248,2.9,3.1,67,0.00,,,0.00,WUHU216HW,2013-10-24 20:07:00,
2013-10-24 16:12:00,49.1,39.0,30.12,WSW,248,1.6,3.1,68,0.00,,,0.00,WUHU216HW,2013-10-24 20:12:00,
2013-10-24 16:17:00,49.1,39.0,30.12,WSW,248,1.1,2.5,68,0.00,,,0.00,WUHU216HW,2013-10-24 20:17:00,
2013-10-24 16:22:00,49.0,38.8,30.12,SW,225,1.3,2.2,68,0.00,,,0.00,WUHU216HW,2013-10-24 20:22:00,
2013-10-24 16:27:00,49.3,39.2,30.12,WSW,248,2.0,2.2,68,0.00,,,0.00,WUHU216HW,2013-10-24 20:27:00,
2013-10-24 16:32:00,49.3,39.2,30.12,West,270,0.9,2.0,68,0.00,,,0.00,WUHU216HW,2013-10-24 20:32:00,
2013-10-24 16:37:00,49.3,39.2,30.12,WSW,248,1.1,2.9,68,0.00,,,0.00,WUHU216HW,2013-10-24 20:37:00,
2013-10-24 16:42:00,49.1,39.0,30.13,West,270,1.8,2.9,68,0.00,,,0.00,WUHU216HW,2013-10-24 20:42:00,
2013-10-24 16:47:00,49.0,38.8,30.13,WSW,248,0.4,2.2,68,0.00,,,0.00,WUHU216HW,2013-10-24 20:47:00,
2013-10-24 16:52:00,49.0,38.8,30.13,West,270,2.0,2.5,68,0.00,,,0.00,WUHU216HW,2013-10-24 20:52:00,
2013-10-24 16:57:00,48.8,38.6,30.12,WSW,248,1.3,2.5,68,0.00,,,0.00,WUHU216HW,2013-10-24 20:57:00,
2013-10-24 17:02:00,48.6,38.9,30.13,WSW,248,1.1,2.2,69,0.00,,,0.00,WUHU216HW,2013-10-24 21:02:00,
2013-10-24 17:07:00,48.6,38.9,30.13,WSW,248,1.8,2.2,69,0.00,,,0.00,WUHU216HW,2013-10-24 21:07:00,
2013-10-24 17:12:00,48.4,38.7,30.13,WSW,248,1.1,2.2,69,0.00,,,0.00,WUHU216HW,2013-10-24 21:12:00,
2013-10-24 17:18:00,48.4,38.7,30.13,West,270,0.4,2.0,69,0.00,,,0.00,WUHU216HW,2013-10-24 21:18:00,
2013-10-24 17:23:00,48.2,38.9,30.13,WSW,248,2.7,2.7,70,0.00,,,0.00,WUHU216HW,2013-10-24 21:23:00,
2013-10-24 17:28:00,48.2,38.5,30.13,WSW,248,1.3,2.7,69,0.00,,,0.00,WUHU216HW,2013-10-24 21:28:00,
2013-10-24 17:33:00,48.2,38.5,30.13,WSW,248,0.7,2.7,69,0.00,,,0.00,WUHU216HW,2013-10-24 21:33:00,
2013-10-24 17:38:00,48.1,38.4,30.13,West,270,1.3,2.5,69,0.00,,,0.00,WUHU216HW,2013-10-24 21:38:00,
2013-10-24 17:43:00,48.2,38.5,30.13,West,270,1.1,2.2,69,0.00,,,0.00,WUHU216HW,2013-10-24 21:43:00,
2013-10-24 17:48:00,48.1,38.4,30.13,WSW,248,1.6,2.2,69,0.00,,,0.00,WUHU216HW,2013-10-24 21:48:00,
2013-10-24 17:53:00,48.1,38.4,30.13,WSW,248,1.1,2.2,69,0.00,,,0.00,WUHU216HW,2013-10-24 21:53:00,
2013-10-24 17:58:00,47.9,38.2,30.13,WSW,248,1.8,2.0,69,0.00,,,0.00,WUHU216HW,2013-10-24 21:58:00,
2013-10-24 18:03:00,47.9,38.5,30.13,WSW,248,1.1,2.2,70,0.00,,,0.00,WUHU216HW,2013-10-24 22:03:00,
2013-10-24 18:08:00,47.9,38.5,30.13,WSW,248,1.1,2.2,70,0.00,,,0.00,WUHU216HW,2013-10-24 22:08:00,
2013-10-24 18:13:00,47.9,38.5,30.13,WSW,248,1.1,2.2,70,0.00,,,0.00,WUHU216HW,2013-10-24 22:13:00,
2013-10-24 18:18:00,47.7,38.4,30.13,West,270,2.0,2.2,70,0.00,,,0.00,WUHU216HW,2013-10-24 22:18:00,
2013-10-24 18:23:00,47.7,38.4,30.13,WSW,248,1.8,2.2,70,0.00,,,0.00,WUHU216HW,2013-10-24 22:23:00,
2013-10-24 18:28:00,47.5,38.6,30.14,West,270,1.8,2.2,71,0.00,,,0.00,WUHU216HW,2013-10-24 22:28:00,
2013-10-24 18:33:00,47.5,38.6,30.13,West,270,1.8,2.2,71,0.00,,,0.00,WUHU216HW,2013-10-24 22:33:00,
2013-10-24 18:38:00,47.5,38.6,30.14,WSW,248,1.6,2.5,71,0.00,,,0.00,WUHU216HW,2013-10-24 22:38:00,
2013-10-24 18:43:00,47.5,38.6,30.14,WSW,248,0.7,2.5,71,0.00,,,0.00,WUHU216HW,2013-10-24 22:43:00,
2013-10-24 18:48:00,47.5,38.6,30.14,WSW,248,0.7,2.5,71,0.00,,,0.00,WUHU216HW,2013-10-24 22:48:00,
2013-10-24 18:53:00,47.5,38.6,30.14,West,270,2.0,2.0,71,0.00,,,0.00,WUHU216HW,2013-10-24 22:53:00,
2013-10-24 18:58:00,47.3,38.4,30.14,WSW,248,1.8,2.0,71,0.00,,,0.00,WUHU216HW,2013-10-24 22:58:00,
2013-10-24 19:03:00,47.3,38.8,30.14,West,270,1.1,2.2,72,0.00,,,0.00,WUHU216HW,2013-10-24 23:03:00,
2013-10-24 19:08:00,47.3,38.8,30.14,West,270,2.5,2.7,72,0.00,,,0.00,WUHU216HW,2013-10-24 23:08:00,
2013-10-24 19:13:00,47.3,38.4,30.14,WSW,248,1.8,2.7,71,0.00,,,0.00,WUHU216HW,2013-10-24 23:13:00,
2013-10-24 19:18:00,47.3,38.4,30.14,WSW,248,1.8,2.5,71,0.00,,,0.00,WUHU216HW,2013-10-24 23:18:00,
2013-10-24 19:23:00,47.2,38.3,30.14,WSW,248,1.8,2.5,71,0.00,,,0.00,WUHU216HW,2013-10-24 23:23:00,
2013-10-24 19:28:00,47.2,38.3,30.15,WSW,248,1.3,2.2,71,0.00,,,0.00,WUHU216HW,2013-10-24 23:28:00,
2013-10-24 19:33:00,47.2,38.3,30.15,WSW,248,1.6,2.5,71,0.00,,,0.00,WUHU216HW,2013-10-24 23:33:00,
2013-10-24 19:38:00,47.2,38.6,30.16,WSW,248,1.8,2.5,72,0.00,,,0.00,WUHU216HW,2013-10-24 23:38:00,
2013-10-24 19:43:00,47.2,38.6,30.16,West,270,1.3,2.2,72,0.00,,,0.00,WUHU216HW,2013-10-24 23:43:00,
2013-10-24 19:48:00,47.2,38.6,30.16,WSW,248,1.3,2.2,72,0.00,,,0.00,WUHU216HW,2013-10-24 23:48:00,
2013-10-24 19:53:00,47.2,38.6,30.16,WSW,248,0.9,2.0,72,0.00,,,0.00,WUHU216HW,2013-10-24 23:53:00,
2013-10-24 19:58:00,47.2,38.6,30.16,West,270,1.3,1.8,72,0.00,,,0.00,WUHU216HW,2013-10-24 23:58:00,
2013-10-24 20:03:00,47.2,38.6,30.16,WSW,248,0.9,1.8,72,0.00,,,0.00,WUHU216HW,2013-10-25 00:03:00,
2013-10-24 20:08:00,47.2,38.6,30.16,WSW,248,1.1,1.8,72,0.00,,,0.00,WUHU216HW,2013-10-25 00:08:00,
2013-10-24 20:13:00,47.0,38.4,30.16,WSW,248,1.3,2.0,72,0.00,,,0.00,WUHU216HW,2013-10-25 00:13:00,
2013-10-24 20:18:00,47.0,38.4,30.16,WSW,248,1.1,2.0,72,0.00,,,0.00,WUHU216HW,2013-10-25 00:18:00,
2013-10-24 20:23:00,47.0,38.4,30.16,WSW,248,0.9,2.0,72,0.00,,,0.00,WUHU216HW,2013-10-25 00:23:00,
2013-10-24 20:28:00,47.0,38.4,30.17,West,270,1.8,1.8,72,0.00,,,0.00,WUHU216HW,2013-10-25 00:28:00,
2013-10-24 20:33:00,46.8,38.3,30.17,West,270,1.8,2.2,72,0.00,,,0.00,WUHU216HW,2013-10-25 00:33:00,
2013-10-24 20:38:00,46.8,38.3,30.17,WSW,248,0.7,2.2,72,0.00,,,0.00,WUHU216HW,2013-10-25 00:38:00,
2013-10-24 20:43:00,46.8,38.3,30.17,WSW,248,1.3,2.0,72,0.00,,,0.00,WUHU216HW,2013-10-25 00:43:00,
2013-10-24 20:48:00,46.8,38.3,30.17,WSW,248,1.8,2.2,72,0.00,,,0.00,WUHU216HW,2013-10-25 00:48:00,
2013-10-24 20:53:00,46.8,38.3,30.17,West,270,1.6,2.2,72,0.00,,,0.00,WUHU216HW,2013-10-25 00:53:00,
2013-10-24 20:58:00,46.6,38.1,30.17,SW,225,2.0,2.2,72,0.00,,,0.00,WUHU216HW,2013-10-25 00:58:00,
2013-10-24 21:03:00,46.4,37.6,30.17,West,270,1.6,2.7,71,0.00,,,0.00,WUHU216HW,2013-10-25 01:03:00,
2013-10-24 21:08:00,46.4,37.6,30.17,WSW,248,2.5,2.7,71,0.00,,,0.00,WUHU216HW,2013-10-25 01:08:00,
2013-10-24 21:13:00,46.4,37.3,30.17,WSW,248,1.3,3.8,70,0.00,,,0.00,WUHU216HW,2013-10-25 01:13:00,
2013-10-24 21:18:00,46.4,36.9,30.17,WSW,248,2.5,3.8,69,0.00,,,0.00,WUHU216HW,2013-10-25 01:18:00,
2013-10-24 21:23:00,46.6,37.5,30.18,West,270,1.1,3.1,70,0.00,,,0.00,WUHU216HW,2013-10-25 01:23:00,
2013-10-24 21:28:00,46.4,36.9,30.18,WNW,293,1.6,3.4,69,0.00,,,0.00,WUHU216HW,2013-10-25 01:28:00,
2013-10-24 21:33:00,46.4,37.3,30.18,WNW,293,0.9,3.4,70,0.00,,,0.00,WUHU216HW,2013-10-25 01:33:00,
2013-10-24 21:38:00,46.3,37.5,30.19,West,270,0.9,2.5,71,0.00,,,0.00,WUHU216HW,2013-10-25 01:38:00,
2013-10-24 21:43:00,46.1,37.3,30.19,North,0,0.4,2.0,71,0.00,,,0.00,WUHU216HW,2013-10-25 01:43:00,
2013-10-24 21:48:00,45.7,37.3,30.19,West,270,1.1,2.2,72,0.00,,,0.00,WUHU216HW,2013-10-25 01:48:00,
2013-10-24 21:53:00,45.4,36.9,30.19,North,0,0.7,2.2,72,0.00,,,0.00,WUHU216HW,2013-10-25 01:53:00,
2013-10-24 21:58:00,45.4,36.9,30.19,NW,315,0.0,1.8,72,0.00,,,0.00,WUHU216HW,2013-10-25 01:58:00,
2013-10-24 22:03:00,45.0,36.8,30.20,NW,315,0.2,1.8,73,0.00,,,0.00,WUHU216HW,2013-10-25 02:03:00,
2013-10-24 22:08:00,45.0,36.8,30.20,West,270,0.4,1.3,73,0.00,,,0.00,WUHU216HW,2013-10-25 02:08:00,
2013-10-24 22:13:00,44.8,37.0,30.20,NNW,338,1.6,2.5,74,0.00,,,0.00,WUHU216HW,2013-10-25 02:13:00,
2013-10-24 22:18:00,44.6,36.8,30.20,West,270,0.0,2.5,74,0.00,,,0.00,WUHU216HW,2013-10-25 02:18:00,
2013-10-24 22:23:00,44.5,36.6,30.21,WNW,293,0.0,1.6,74,0.00,,,0.00,WUHU216HW,2013-10-25 02:23:00,
2013-10-24 22:28:00,44.3,36.5,30.21,East,90,0.0,1.1,74,0.00,,,0.00,WUHU216HW,2013-10-25 02:28:00,
2013-10-24 22:33:00,44.3,36.5,30.21,NW,315,0.4,0.7,74,0.00,,,0.00,WUHU216HW,2013-10-25 02:33:00,
2013-10-24 22:38:00,44.3,36.5,30.21,WNW,293,1.1,1.1,74,0.00,,,0.00,WUHU216HW,2013-10-25 02:38:00,
2013-10-24 22:43:00,44.1,36.4,30.21,WNW,293,0.7,1.3,74,0.00,,,0.00,WUHU216HW,2013-10-25 02:43:00,
2013-10-24 22:48:00,43.9,36.2,30.21,NW,315,0.7,1.3,74,0.00,,,0.00,WUHU216HW,2013-10-25 02:48:00,
2013-10-24 22:53:00,43.9,36.2,30.21,NNE,23,1.3,1.3,74,0.00,,,0.00,WUHU216HW,2013-10-25 02:53:00,
2013-10-24 22:58:00,43.6,35.8,30.21,NNW,338,0.4,1.6,74,0.00,,,0.00,WUHU216HW,2013-10-25 02:58:00,
2013-10-24 23:03:00,43.6,35.8,30.22,West,270,0.4,1.6,74,0.00,,,0.00,WUHU216HW,2013-10-25 03:03:00,
2013-10-24 23:08:00,43.6,35.8,30.22,West,270,0.9,1.1,74,0.00,,,0.00,WUHU216HW,2013-10-25 03:08:00,
2013-10-24 23:13:00,43.4,35.6,30.22,NW,315,0.4,1.3,74,0.00,,,0.00,WUHU216HW,2013-10-25 03:13:00,
2013-10-24 23:18:00,43.2,35.5,30.22,West,270,1.3,1.3,74,0.00,,,0.00,WUHU216HW,2013-10-25 03:18:00,
2013-10-24 23:23:00,43.2,35.5,30.23,West,270,0.7,1.8,74,0.00,,,0.00,WUHU216HW,2013-10-25 03:23:00,
2013-10-24 23:28:00,42.8,35.1,30.22,WNW,293,1.1,2.0,74,0.00,,,0.00,WUHU216HW,2013-10-25 03:28:00,
2013-10-24 23:33:00,42.7,34.9,30.23,West,270,2.0,2.2,74,0.00,,,0.00,WUHU216HW,2013-10-25 03:33:00,
2013-10-24 23:38:00,42.1,34.4,30.23,WNW,293,1.1,2.5,74,0.00,,,0.00,WUHU216HW,2013-10-25 03:38:00,
2013-10-24 23:43:00,41.8,34.0,30.23,NNW,338,1.1,2.5,74,0.00,,,0.00,WUHU216HW,2013-10-25 03:43:00,
2013-10-24 23:48:00,41.6,33.8,30.23,WNW,293,0.4,2.2,74,0.00,,,0.00,WUHU216HW,2013-10-25 03:48:00,
2013-10-24 23:53:00,41.4,33.7,30.23,NNW,338,0.7,2.2,74,0.00,,,0.00,WUHU216HW,2013-10-25 03:53:00,
2013-10-24 23:58:00,41.0,33.7,30.24,East,90,0.9,4.0,75,0.00,,,0.00,WUHU216HW,2013-10-25 03:58:00,